Time;durP1;ratioP1;P1;durP2;ratioP2;P2;SDS_P1;SDS_P2;PMS_P1;PMS_P2;Temp;Humidity;BMP_temperature;BMP_pressure;BME280_temperature;BME280_humidity;BME280_pressure;Samples;Min_cycle;Max_cycle;Signal;HPM_P1;HPM_P2
2021/04/05 00:00:00;;;;;;;7.60;5.60;;;10.00;48.90;;;;;;5044114;28;20189;-89
2021/04/05 00:02:26;;;;;;;7.63;5.80;;;9.90;49.70;;;;;;5045413;28;20177;-89
2021/04/05 00:04:52;;;;;;;7.97;5.80;;;9.70;49.80;;;;;;5045011;28;20258;-89
2021/04/05 00:07:17;;;;;;;7.20;5.27;;;9.60;50.50;;;;;;5045570;28;20733;-87
2021/04/05 00:09:45;;;;;;;6.57;5.60;;;9.50;50.90;;;;;;5057168;28;20176;-88
2021/04/05 00:12:11;;;;;;;7.67;5.53;;;9.50;51.00;;;;;;5057944;28;20228;-89
2021/04/05 00:14:38;;;;;;;7.03;5.50;;;9.20;51.30;;;;;;5048399;28;20204;-88
2021/04/05 00:17:05;;;;;;;8.97;6.13;;;9.20;51.40;;;;;;5027271;28;20224;-88
2021/04/05 00:19:32;;;;;;;9.93;5.40;;;9.20;51.80;;;;;;5044939;28;20177;-89
2021/04/05 00:21:58;;;;;;;8.80;6.10;;;8.90;52.20;;;;;;5043400;28;20181;-89
2021/04/05 00:24:23;;;;;;;7.10;5.73;;;8.90;52.70;;;;;;5044876;28;20201;-89
2021/04/05 00:26:49;;;;;;;6.97;5.30;;;8.70;53.20;;;;;;5043474;28;20271;-89
2021/04/05 00:29:15;;;;;;;8.07;5.90;;;8.80;53.50;;;;;;5044722;28;20181;-89
2021/04/05 00:31:41;;;;;;;7.70;5.17;;;8.40;53.80;;;;;;5044856;28;20192;-89
2021/04/05 00:34:06;;;;;;;9.60;5.70;;;8.50;54.90;;;;;;5044473;28;20185;-89
2021/04/05 00:36:32;;;;;;;6.13;5.40;;;8.40;54.50;;;;;;5044939;28;20196;-89
2021/04/05 00:38:58;;;;;;;9.63;5.60;;;8.30;55.00;;;;;;5044216;28;20177;-89
2021/04/05 00:41:25;;;;;;;6.77;5.37;;;8.30;55.30;;;;;;5044952;28;20539;-89
2021/04/05 00:43:51;;;;;;;7.20;5.60;;;8.30;55.40;;;;;;5044549;28;20192;-89
2021/04/05 00:46:22;;;;;;;8.50;5.80;;;8.20;55.90;;;;;;5043090;28;20276;-89
2021/04/05 00:48:49;;;;;;;7.50;5.13;;;8.10;56.00;;;;;;5044690;28;20188;-89
2021/04/05 00:51:20;;;;;;;8.50;5.73;;;8.20;56.00;;;;;;5043317;28;20189;-89
2021/04/05 00:53:47;;;;;;;6.30;5.50;;;8.20;55.90;;;;;;5027058;28;20180;-89
2021/04/05 00:56:15;;;;;;;9.90;5.43;;;8.30;55.60;;;;;;5044186;28;20208;-89
2021/04/05 00:58:41;;;;;;;9.33;5.43;;;8.30;55.40;;;;;;5044556;28;20185;-89
2021/04/05 01:01:10;;;;;;;7.20;5.43;;;8.40;55.20;;;;;;5043190;28;20181;-89
2021/04/05 01:03:39;;;;;;;8.50;6.10;;;8.30;55.40;;;;;;5043494;28;20269;-89
2021/04/05 01:06:14;;;;;;;6.70;5.43;;;8.10;56.10;;;;;;5044195;28;20212;-89
2021/04/05 01:08:40;;;;;;;7.33;5.67;;;8.20;56.20;;;;;;5044599;28;20207;-89
2021/04/05 01:11:08;;;;;;;8.97;6.00;;;8.20;56.00;;;;;;5044705;28;20185;-89
2021/04/05 01:13:34;;;;;;;9.77;6.07;;;8.20;56.70;;;;;;5043346;28;20197;-89
2021/04/05 01:16:00;;;;;;;8.33;6.10;;;8.20;56.10;;;;;;5044580;28;20219;-89
2021/04/05 01:18:28;;;;;;;7.80;5.40;;;8.10;56.50;;;;;;5042953;28;20208;-89
2021/04/05 01:20:55;;;;;;;8.20;6.27;;;8.00;56.50;;;;;;5044357;28;20173;-88
2021/04/05 01:23:21;;;;;;;7.77;6.17;;;8.20;56.50;;;;;;5043896;28;20201;-89
2021/04/05 01:25:48;;;;;;;9.23;5.50;;;8.20;56.10;;;;;;5042557;28;20209;-89
2021/04/05 01:28:14;;;;;;;7.37;5.70;;;8.20;56.80;;;;;;5043295;28;20181;-89
2021/04/05 01:30:50;;;;;;;7.63;6.00;;;8.10;56.60;;;;;;5044021;28;20213;-88
2021/04/05 01:33:33;;;;;;;9.17;5.57;;;7.90;57.60;;;;;;5044033;28;20181;-87
2021/04/05 01:36:00;;;;;;;7.37;5.90;;;7.70;58.60;;;;;;5043345;28;20272;-87
2021/04/05 01:38:29;;;;;;;8.77;5.83;;;7.50;59.70;;;;;;5044674;28;20656;-89
2021/04/05 01:41:05;;;;;;;6.40;5.20;;;7.30;60.30;;;;;;5047552;28;20173;-89
2021/04/05 01:43:32;;;;;;;7.33;5.33;;;7.30;60.90;;;;;;5046648;28;20218;-89
2021/04/05 01:46:00;;;;;;;6.10;5.50;;;7.20;61.20;;;;;;5047948;28;20201;-89
2021/04/05 01:48:28;;;;;;;9.63;5.60;;;7.10;61.80;;;;;;5047592;28;20185;-89
2021/04/05 01:51:08;;;;;;;9.93;6.10;;;7.10;61.50;;;;;;5047823;28;20245;-89
2021/04/05 01:53:35;;;;;;;9.33;6.03;;;7.20;61.60;;;;;;5048073;28;20660;-89
2021/04/05 01:56:06;;;;;;;9.30;5.10;;;7.10;61.50;;;;;;5045944;28;20209;-89
2021/04/05 01:58:36;;;;;;;7.20;5.00;;;7.20;61.40;;;;;;5030002;28;20612;-89
2021/04/05 02:01:03;;;;;;;6.40;5.77;;;7.10;61.50;;;;;;5030137;28;20272;-89
2021/04/05 02:03:29;;;;;;;9.87;5.63;;;7.10;61.20;;;;;;5046196;28;20184;-89
2021/04/05 02:06:04;;;;;;;7.47;5.40;;;7.20;61.20;;;;;;5046533;28;20236;-88
2021/04/05 02:08:31;;;;;;;7.20;5.63;;;7.20;61.10;;;;;;5046516;28;20586;-89
2021/04/05 02:11:05;;;;;;;9.07;4.97;;;7.30;61.10;;;;;;5045764;28;20235;-88
2021/04/05 02:13:31;;;;;;;7.80;4.73;;;7.20;61.30;;;;;;5047350;28;20165;-89
2021/04/05 02:15:57;;;;;;;9.20;5.57;;;7.20;61.30;;;;;;5047000;28;20244;-89
2021/04/05 02:18:24;;;;;;;5.53;5.00;;;7.30;60.90;;;;;;5047183;28;20724;-89
2021/04/05 02:20:51;;;;;;;7.43;5.10;;;7.30;60.50;;;;;;5045934;28;20177;-89
2021/04/05 02:23:17;;;;;;;7.60;5.17;;;7.30;60.50;;;;;;5045821;28;20185;-89
2021/04/05 02:28:43;;;;;;;5.90;5.03;;;7.30;60.80;;;;;;5047146;28;20528;-88
2021/04/05 02:31:10;;;;;;;7.30;5.33;;;7.30;60.80;;;;;;5045819;28;20183;-89
2021/04/05 02:33:40;;;;;;;6.47;5.90;;;7.40;60.80;;;;;;5045557;28;20196;-89
2021/04/05 02:36:12;;;;;;;7.27;5.37;;;7.40;60.30;;;;;;5045673;28;20224;-89
2021/04/05 02:38:39;;;;;;;7.80;5.40;;;7.50;60.20;;;;;;5046680;28;20195;-89
2021/04/05 02:41:09;;;;;;;6.60;5.27;;;7.50;60.10;;;;;;5046614;28;20184;-89
2021/04/05 02:43:36;;;;;;;6.93;5.50;;;7.70;59.80;;;;;;5045686;28;20181;-89
2021/04/05 02:46:04;;;;;;;8.00;5.10;;;7.70;59.30;;;;;;5046598;28;20278;-89
2021/04/05 02:48:32;;;;;;;7.20;5.97;;;7.60;59.60;;;;;;5045331;28;20185;-89
2021/04/05 02:51:02;;;;;;;7.90;6.07;;;7.50;59.50;;;;;;5044403;28;20181;-89
2021/04/05 02:53:30;;;;;;;6.83;5.27;;;7.30;60.20;;;;;;5045276;28;20192;-89
2021/04/05 02:55:56;;;;;;;5.73;5.10;;;7.20;60.60;;;;;;5046352;28;20208;-89
2021/04/05 02:58:22;;;;;;;8.07;5.60;;;7.30;60.70;;;;;;5046383;28;20177;-89
2021/04/05 03:00:48;;;;;;;7.37;5.60;;;7.00;61.30;;;;;;5046347;28;20181;-89
2021/04/05 03:03:14;;;;;;;6.37;4.93;;;6.90;62.20;;;;;;5045354;28;20355;-89
2021/04/05 03:05:40;;;;;;;6.57;5.40;;;6.90;62.80;;;;;;5046368;28;20201;-89
2021/04/05 03:08:06;;;;;;;9.67;5.77;;;6.70;64.30;;;;;;5045915;28;20212;-89
2021/04/05 03:10:36;;;;;;;8.97;6.53;;;6.60;64.30;;;;;;5045338;28;20189;-89
2021/04/05 03:13:02;;;;;;;8.97;5.80;;;6.60;64.60;;;;;;5046567;28;20177;-88
2021/04/05 03:15:29;;;;;;;9.20;5.90;;;6.70;64.20;;;;;;5044727;28;20213;-89
2021/04/05 03:18:01;;;;;;;8.53;5.83;;;6.70;63.70;;;;;;5045914;28;20211;-89
2021/04/05 03:20:34;;;;;;;6.07;5.20;;;6.70;63.70;;;;;;5044544;28;20258;-89
2021/04/05 03:23:03;;;;;;;8.73;5.53;;;6.70;64.00;;;;;;5045953;28;20181;-89
2021/04/05 03:25:30;;;;;;;7.43;5.13;;;6.80;63.80;;;;;;5046031;28;20260;-88
2021/04/05 03:27:56;;;;;;;6.67;5.50;;;6.70;64.40;;;;;;5045122;28;20189;-89
2021/04/05 03:30:37;;;;;;;7.17;5.43;;;6.70;65.00;;;;;;5046246;28;20189;-88
2021/04/05 03:33:28;;;;;;;9.23;6.20;;;6.60;65.40;;;;;;5045084;28;20606;-88
2021/04/05 03:36:05;;;;;;;7.37;5.40;;;6.60;66.10;;;;;;5045696;28;20217;-88
2021/04/05 03:38:31;;;;;;;9.97;5.73;;;6.60;66.20;;;;;;5046392;28;20176;-88
2021/04/05 03:40:59;;;;;;;7.67;6.10;;;6.60;66.40;;;;;;5056776;28;20172;-89
2021/04/05 03:44:01;;;;;;;12.60;6.00;;;6.70;66.70;;;;;;5051565;28;20165;-89
2021/04/05 03:46:32;;;;;;;10.67;5.97;;;6.60;66.80;;;;;;5047616;28;20208;-89
2021/04/05 03:49:20;;;;;;;10.37;5.53;;;6.60;66.70;;;;;;5047705;28;20173;-89
2021/04/05 03:51:57;;;;;;;8.17;5.80;;;6.70;66.20;;;;;;5052413;28;20200;-89
2021/04/05 03:54:25;;;;;;;6.87;5.60;;;6.70;65.70;;;;;;5058408;28;20324;-89
2021/04/05 03:56:53;;;;;;;7.73;5.30;;;6.70;65.80;;;;;;5058591;28;20200;-90
2021/04/05 03:59:26;;;;;;;7.63;6.00;;;6.70;65.90;;;;;;5058516;28;20178;-90
2021/04/05 04:01:57;;;;;;;9.07;5.63;;;6.50;66.30;;;;;;5058928;28;20157;-90
2021/04/05 04:04:36;;;;;;;8.03;5.00;;;6.60;66.10;;;;;;5058433;28;20173;-90
2021/04/05 04:07:25;;;;;;;9.93;5.57;;;6.80;65.50;;;;;;5050986;28;20616;-89
2021/04/05 04:09:55;;;;;;;8.47;5.70;;;6.70;65.40;;;;;;5044993;28;20172;-88
2021/04/05 04:12:22;;;;;;;6.70;4.53;;;6.60;65.90;;;;;;5027363;28;20181;-88
2021/04/05 04:14:49;;;;;;;6.80;4.57;;;6.70;66.00;;;;;;5045689;28;20350;-89
2021/04/05 04:17:16;;;;;;;7.17;5.40;;;6.70;65.30;;;;;;5045622;28;20209;-88
2021/04/05 04:19:41;;;;;;;9.00;5.33;;;6.70;64.90;;;;;;5051075;28;20195;-89
2021/04/05 04:22:08;;;;;;;8.87;5.27;;;6.80;64.90;;;;;;5052396;28;20209;-88
2021/04/05 04:24:35;;;;;;;7.97;4.80;;;6.70;64.50;;;;;;5048463;28;20272;-89
2021/04/05 04:27:01;;;;;;;6.03;4.73;;;6.70;65.00;;;;;;5043942;28;20250;-89
2021/04/05 04:29:27;;;;;;;10.07;5.30;;;6.70;65.00;;;;;;5044798;28;20177;-89
2021/04/05 04:31:53;;;;;;;6.67;5.17;;;6.70;65.10;;;;;;5044568;28;20671;-89
2021/04/05 04:34:21;;;;;;;6.70;4.57;;;6.60;65.50;;;;;;5026578;28;20193;-88
2021/04/05 04:36:50;;;;;;;6.47;5.17;;;6.60;66.20;;;;;;5044644;28;20192;-89
2021/04/05 04:39:17;;;;;;;10.17;5.17;;;6.40;67.10;;;;;;5044930;28;20173;-88
2021/04/05 04:41:44;;;;;;;12.33;6.17;;;6.30;67.90;;;;;;5043646;28;20177;-89
2021/04/05 04:44:11;;;;;;;8.23;5.87;;;6.30;68.40;;;;;;5043628;28;20196;-89
2021/04/05 04:46:37;;;;;;;8.57;6.03;;;6.30;69.00;;;;;;5044474;28;20177;-89
2021/04/05 04:49:06;;;;;;;7.63;5.50;;;6.10;69.80;;;;;;5044860;28;20177;-89
2021/04/05 04:51:32;;;;;;;7.47;6.10;;;6.10;69.70;;;;;;5044823;28;20184;-89
2021/04/05 04:54:00;;;;;;;10.07;5.97;;;6.20;69.50;;;;;;5043863;28;20271;-89
2021/04/05 04:56:27;;;;;;;8.10;5.60;;;6.20;69.50;;;;;;5026178;28;20216;-89
2021/04/05 04:58:59;;;;;;;8.53;5.17;;;6.30;69.90;;;;;;5044519;28;20180;-89
2021/04/05 05:01:26;;;;;;;7.23;5.80;;;6.30;69.10;;;;;;5044435;28;20169;-89
2021/04/05 05:03:55;;;;;;;8.53;5.33;;;6.30;69.20;;;;;;5043383;28;20543;-89
2021/04/05 05:06:24;;;;;;;9.47;5.17;;;6.30;69.60;;;;;;5044079;28;20203;-89
2021/04/05 05:08:54;;;;;;;8.70;5.73;;;6.20;69.00;;;;;;5043089;28;20184;-89
2021/04/05 05:11:21;;;;;;;12.30;5.73;;;6.20;69.00;;;;;;5044476;28;20189;-90
2021/04/05 05:13:46;;;;;;;11.80;6.03;;;6.20;69.10;;;;;;5043505;28;20184;-88
2021/04/05 05:16:13;;;;;;;8.63;6.47;;;6.20;69.00;;;;;;5044249;28;20213;-88
2021/04/05 05:18:39;;;;;;;9.07;5.60;;;6.30;68.90;;;;;;5044371;28;20177;-88
2021/04/05 05:21:09;;;;;;;8.50;5.87;;;6.40;68.60;;;;;;5043061;28;20179;-88
2021/04/05 05:23:36;;;;;;;8.13;5.53;;;6.40;68.70;;;;;;5043941;28;20253;-88
2021/04/05 05:26:04;;;;;;;15.03;5.10;;;6.40;68.40;;;;;;5044229;28;20239;-88
2021/04/05 05:28:33;;;;;;;9.17;5.03;;;6.50;68.50;;;;;;5044189;28;20177;-88
2021/04/05 05:31:00;;;;;;;8.17;5.47;;;6.60;68.20;;;;;;5043842;28;20188;-88
2021/04/05 05:33:26;;;;;;;7.10;5.40;;;6.60;67.60;;;;;;5043814;28;20208;-89
2021/04/05 05:35:52;;;;;;;6.50;5.53;;;6.60;67.70;;;;;;5042740;28;20224;-89
2021/04/05 05:38:24;;;;;;;7.80;5.47;;;6.70;67.80;;;;;;5038195;28;20692;-89
2021/04/05 05:40:53;;;;;;;8.60;5.40;;;6.60;67.70;;;;;;5026964;28;20178;-88
2021/04/05 05:43:38;;;;;;;8.00;5.73;;;6.60;67.60;;;;;;5043634;28;20640;-88
2021/04/05 05:46:24;;;;;;;10.63;6.10;;;6.50;69.00;;;;;;5044300;28;20193;-88
2021/04/05 05:52:44;;;;;;;10.10;6.40;;;6.70;68.00;;;;;;5042549;28;20223;-89
2021/04/05 05:55:38;;;;;;;12.90;6.20;;;6.80;67.60;;;;;;5062328;28;20275;-91
2021/04/05 05:58:16;;;;;;;10.53;6.17;;;6.80;67.30;;;;;;5024122;28;20177;-90
2021/04/05 06:00:56;;;;;;;13.73;6.30;;;6.80;67.10;;;;;;5044268;28;20192;-91
2021/04/05 06:03:45;;;;;;;9.17;5.83;;;6.80;67.00;;;;;;5043871;28;20200;-90
2021/04/05 06:06:15;;;;;;;11.37;6.10;;;6.80;66.40;;;;;;5043181;28;20795;-92
2021/04/05 06:09:04;;;;;;;12.07;7.07;;;6.90;66.80;;;;;;5043145;28;20185;-91
2021/04/05 06:11:56;;;;;;;9.50;6.17;;;7.00;65.10;;;;;;5024008;28;20155;-90
2021/04/05 06:14:46;;;;;;;10.43;6.47;;;7.10;64.40;;;;;;5034091;28;20173;-91
2021/04/05 06:17:31;;;;;;;9.73;5.93;;;7.10;64.50;;;;;;5043401;28;20668;-90
2021/04/05 06:20:20;;;;;;;9.03;5.97;;;7.00;64.60;;;;;;5037029;28;20269;-90
2021/04/05 06:23:06;;;;;;;12.00;5.80;;;7.10;64.30;;;;;;5039421;28;20643;-90
2021/04/05 06:26:09;;;;;;;11.90;6.60;;;7.10;64.30;;;;;;5044067;28;20196;-90
2021/04/05 06:28:56;;;;;;;10.97;6.80;;;7.10;65.30;;;;;;5047034;28;20157;-90
2021/04/05 06:32:03;;;;;;;7.37;5.27;;;7.10;64.90;;;;;;5028985;28;20180;-92
2021/04/05 06:34:35;;;;;;;9.97;6.87;;;7.40;64.00;;;;;;5040327;28;20248;-92
2021/04/05 06:37:07;;;;;;;9.07;5.77;;;7.40;63.70;;;;;;5046441;28;20208;-89
2021/04/05 06:39:39;;;;;;;16.97;5.80;;;7.20;64.30;;;;;;5047445;28;20170;-89
2021/04/05 06:42:26;;;;;;;7.17;6.10;;;7.40;63.20;;;;;;5047078;28;20201;-89
2021/04/05 06:45:16;;;;;;;10.63;5.77;;;7.60;62.90;;;;;;5046628;28;20196;-89
2021/04/05 06:47:50;;;;;;;8.37;5.93;;;7.60;62.30;;;;;;5046274;28;20237;-89
2021/04/05 06:50:31;;;;;;;8.93;6.80;;;7.70;62.50;;;;;;5045722;28;20183;-88
2021/04/05 06:53:32;;;;;;;9.40;6.20;;;7.50;62.80;;;;;;5047342;28;20590;-90
2021/04/05 06:55:58;;;;;;;10.63;6.53;;;7.50;62.70;;;;;;5046647;28;20201;-89
2021/04/05 06:58:42;;;;;;;11.43;6.57;;;7.60;62.60;;;;;;5029778;28;20204;-89
2021/04/05 07:01:33;;;;;;;11.00;6.50;;;7.60;62.40;;;;;;5045790;28;20698;-90
2021/04/05 07:04:17;;;;;;;11.53;6.87;;;7.60;62.60;;;;;;5045837;28;20248;-89
2021/04/05 07:07:11;;;;;;;8.27;6.37;;;7.50;62.70;;;;;;5046284;28;20181;-91
2021/04/05 07:09:48;;;;;;;10.00;6.43;;;7.60;62.30;;;;;;5045899;28;20713;-90
2021/04/05 07:12:52;;;;;;;12.27;6.43;;;7.70;62.70;;;;;;5040433;28;20196;-90
2021/04/05 07:15:23;;;;;;;10.63;6.80;;;7.80;62.50;;;;;;5043114;28;20205;-90
2021/04/05 07:18:13;;;;;;;13.60;7.90;;;7.80;62.70;;;;;;5042225;28;20547;-91
2021/04/05 07:21:04;;;;;;;10.57;7.97;;;7.80;62.60;;;;;;5046260;28;20181;-90
2021/04/05 07:24:08;;;;;;;11.77;8.03;;;7.90;63.00;;;;;;5046092;28;20184;-90
2021/04/05 07:26:57;;;;;;;16.20;9.03;;;7.90;63.50;;;;;;5043761;28;20246;-90
2021/04/05 07:29:56;;;;;;;16.37;10.13;;;7.90;64.40;;;;;;5047348;28;20164;-89
2021/04/05 07:32:49;;;;;;;16.67;9.73;;;7.90;64.20;;;;;;5045977;28;20188;-90
2021/04/05 07:35:19;;;;;;;17.80;11.53;;;8.00;64.10;;;;;;5044973;28;20221;-90
2021/04/05 07:37:58;;;;;;;17.00;11.03;;;7.90;65.10;;;;;;5046032;28;20212;-90
2021/04/05 07:41:09;;;;;;;17.57;11.10;;;7.90;64.60;;;;;;5045823;28;20252;-89
2021/04/05 07:43:55;;;;;;;14.60;10.27;;;8.00;64.80;;;;;;5041350;28;20215;-90
2021/04/05 07:46:36;;;;;;;20.70;9.67;;;8.20;64.60;;;;;;5037753;28;20200;-88
2021/04/05 07:49:13;;;;;;;21.87;11.93;;;8.10;64.80;;;;;;5038916;28;20181;-87
2021/04/05 07:52:20;;;;;;;18.80;12.37;;;8.20;65.30;;;;;;5044890;28;20177;-88
2021/04/05 07:54:48;;;;;;;22.40;12.47;;;8.30;65.70;;;;;;5026538;28;20213;-90
2021/04/05 07:57:34;;;;;;;22.63;13.10;;;8.20;65.40;;;;;;5034728;28;20263;-90
2021/04/05 08:00:08;;;;;;;21.03;12.80;;;8.30;65.30;;;;;;5045173;28;20211;-90
2021/04/05 08:02:56;;;;;;;22.13;13.03;;;8.40;65.40;;;;;;5044941;28;20169;-90
2021/04/05 08:05:28;;;;;;;18.07;12.30;;;8.40;65.60;;;;;;5046887;28;20215;-90
2021/04/05 08:07:54;;;;;;;22.77;13.30;;;8.50;65.10;;;;;;5046252;28;20177;-90
2021/04/05 08:10:33;;;;;;;23.90;12.43;;;8.40;65.70;;;;;;5047108;28;20229;-89
2021/04/05 08:13:20;;;;;;;25.40;13.43;;;8.60;65.00;;;;;;5047185;28;20165;-90
2021/04/05 08:16:23;;;;;;;27.90;14.30;;;8.70;65.40;;;;;;5028328;28;20205;-90
2021/04/05 08:19:01;;;;;;;21.00;12.73;;;8.70;64.70;;;;;;5037162;28;20181;-90
2021/04/05 08:21:35;;;;;;;30.57;14.27;;;8.80;65.40;;;;;;5048793;28;20157;-90
2021/04/05 08:24:14;;;;;;;24.43;14.00;;;9.10;63.80;;;;;;5053048;28;20220;-89
2021/04/05 08:27:12;;;;;;;20.53;13.80;;;9.00;63.10;;;;;;5058418;28;20153;-91
2021/04/05 08:30:03;;;;;;;19.87;13.23;;;9.20;62.80;;;;;;5058186;28;20165;-89
2021/04/05 08:32:32;;;;;;;22.27;14.77;;;9.20;63.90;;;;;;5058159;28;20173;-90
2021/04/05 08:35:16;;;;;;;23.40;13.93;;;9.40;63.10;;;;;;5058370;28;20216;-90
2021/04/05 08:38:03;;;;;;;21.33;13.00;;;9.40;62.40;;;;;;5053162;28;20683;-89
2021/04/05 08:40:37;;;;;;;22.83;13.93;;;9.50;60.90;;;;;;5043600;28;20268;-89
2021/04/05 08:43:40;;;;;;;22.60;14.07;;;9.40;61.30;;;;;;5045674;28;20224;-89
2021/04/05 08:46:19;;;;;;;17.20;11.83;;;9.40;61.60;;;;;;5043033;28;20568;-90
2021/04/05 08:48:51;;;;;;;22.20;13.90;;;9.50;60.80;;;;;;5043873;28;20165;-90
2021/04/05 08:51:42;;;;;;;27.93;14.00;;;9.60;60.70;;;;;;5044220;28;20175;-90
2021/04/05 08:54:10;;;;;;;22.00;14.37;;;9.70;62.40;;;;;;5043453;28;20172;-90
2021/04/05 08:56:44;;;;;;;21.43;12.50;;;9.70;59.50;;;;;;5043820;28;20223;-89
2021/04/05 08:59:16;;;;;;;21.27;13.03;;;9.90;60.10;;;;;;5044042;28;20172;-89
2021/04/05 09:01:56;;;;;;;20.47;12.50;;;10.10;58.70;;;;;;5044388;28;20252;-88
2021/04/05 09:04:24;;;;;;;19.13;12.07;;;10.20;59.10;;;;;;5042079;28;20163;-89
2021/04/05 09:07:18;;;;;;;21.30;12.77;;;10.40;57.20;;;;;;5043548;28;20173;-90
2021/04/05 09:09:49;;;;;;;28.13;11.93;;;10.40;57.00;;;;;;5042188;28;20158;-90
2021/04/05 09:12:15;;;;;;;17.90;11.50;;;10.40;55.60;;;;;;5042344;28;20175;-89
2021/04/05 09:15:07;;;;;;;23.03;12.77;;;10.40;54.80;;;;;;5045727;28;20196;-89
2021/04/05 09:17:49;;;;;;;19.00;12.10;;;10.60;55.60;;;;;;5044936;28;20204;-90
2021/04/05 09:20:24;;;;;;;25.17;11.53;;;10.70;54.40;;;;;;5046966;28;20215;-89
2021/04/05 09:23:06;;;;;;;19.50;11.93;;;10.90;53.80;;;;;;5045594;28;20175;-90
2021/04/05 09:25:47;;;;;;;18.27;11.67;;;10.90;54.50;;;;;;5046443;28;20191;-90
2021/04/05 09:28:26;;;;;;;22.87;11.83;;;10.80;53.90;;;;;;5046893;28;20279;-90
2021/04/05 09:31:17;;;;;;;18.30;11.03;;;10.80;53.60;;;;;;5045917;28;20172;-91
2021/04/05 09:34:05;;;;;;;23.97;12.33;;;10.80;53.80;;;;;;5045893;28;20154;-90
2021/04/05 09:36:54;;;;;;;27.93;12.13;;;10.80;53.40;;;;;;5045480;28;20215;-90
2021/04/05 09:39:34;;;;;;;47.43;13.23;;;10.80;53.00;;;;;;5045673;28;20157;-89
2021/04/05 09:42:30;;;;;;;18.97;10.47;;;10.80;52.50;;;;;;5047323;28;20165;-90
2021/04/05 09:45:14;;;;;;;16.93;10.77;;;10.90;52.80;;;;;;5046277;28;21003;-89
2021/04/05 09:47:55;;;;;;;15.10;11.03;;;10.90;52.20;;;;;;5046166;28;20177;-90
2021/04/05 09:50:39;;;;;;;21.13;11.23;;;11.00;52.20;;;;;;5025127;28;20189;-90
2021/04/05 09:53:33;;;;;;;21.27;10.67;;;11.00;52.30;;;;;;5024847;28;20181;-90
2021/04/05 09:56:04;;;;;;;16.73;10.13;;;11.10;52.20;;;;;;5026446;28;20883;-90
2021/04/05 09:58:33;;;;;;;21.97;9.83;;;11.20;52.20;;;;;;5025046;28;20170;-92
2021/04/05 10:01:14;;;;;;;19.00;9.87;;;11.20;52.60;;;;;;5031581;28;20201;-91
2021/04/05 10:03:46;;;;;;;19.30;11.43;;;11.40;51.30;;;;;;5032906;28;20204;-90
2021/04/05 10:06:15;;;;;;;17.93;10.20;;;11.40;51.80;;;;;;5033231;28;20197;-89
2021/04/05 10:08:43;;;;;;;20.83;10.30;;;11.50;52.00;;;;;;5050193;28;20214;-88
2021/04/05 10:11:11;;;;;;;20.80;11.67;;;11.50;51.70;;;;;;5049281;28;20719;-88
2021/04/05 10:13:44;;;;;;;19.20;12.03;;;11.30;52.90;;;;;;5049333;28;20178;-88
2021/04/05 10:16:10;;;;;;;22.03;11.70;;;11.40;54.10;;;;;;5050817;28;20209;-89
2021/04/05 10:18:36;;;;;;;21.57;11.10;;;11.50;52.90;;;;;;5032517;28;20181;-89
2021/04/05 10:21:05;;;;;;;19.13;11.40;;;11.40;52.40;;;;;;5047717;28;20224;-89
2021/04/05 10:23:33;;;;;;;20.23;12.40;;;11.30;53.90;;;;;;5048750;28;20181;-90
2021/04/05 10:26:01;;;;;;;20.30;11.20;;;11.20;55.60;;;;;;5049835;28;20213;-90
2021/04/05 10:28:32;;;;;;;20.50;12.23;;;11.20;55.40;;;;;;5046258;28;20213;-90
2021/04/05 10:31:01;;;;;;;19.53;12.23;;;11.20;56.20;;;;;;5046435;28;20189;-91
2021/04/05 10:33:34;;;;;;;25.00;13.80;;;11.30;56.10;;;;;;5047781;28;20246;-90
2021/04/05 10:36:06;;;;;;;20.13;12.97;;;11.40;55.90;;;;;;5046749;28;20232;-91
2021/04/05 10:38:34;;;;;;;26.93;13.77;;;11.50;56.60;;;;;;5049217;28;20227;-91
2021/04/05 10:41:00;;;;;;;32.07;13.93;;;11.50;55.80;;;;;;5040654;28;20837;-90
2021/04/05 10:43:36;;;;;;;24.13;14.00;;;11.30;56.70;;;;;;5049712;28;20256;-91
2021/04/05 10:46:22;;;;;;;24.40;12.97;;;11.20;56.80;;;;;;5054146;28;20211;-91
2021/04/05 10:48:55;;;;;;;23.87;13.67;;;10.90;57.60;;;;;;5059212;28;20161;-90
2021/04/05 10:51:37;;;;;;;19.23;12.73;;;10.90;57.70;;;;;;5059013;28;20195;-90
2021/04/05 10:54:05;;;;;;;19.93;13.40;;;10.90;58.10;;;;;;5045704;28;20211;-90
2021/04/05 10:57:03;;;;;;;27.90;12.77;;;11.00;57.60;;;;;;5042775;28;20212;-91
2021/04/05 10:59:51;;;;;;;21.50;11.70;;;10.90;58.40;;;;;;5019825;28;20194;-91
2021/04/05 11:02:54;;;;;;;23.80;12.03;;;10.80;58.00;;;;;;5038043;28;20201;-91
2021/04/05 11:05:23;;;;;;;22.13;13.63;;;10.70;58.50;;;;;;5045869;28;20875;-90
2021/04/05 11:07:57;;;;;;;18.00;12.07;;;10.80;58.30;;;;;;5047974;28;20185;-91
2021/04/05 11:10:25;;;;;;;21.90;12.03;;;10.70;58.80;;;;;;5047201;28;20248;-91
2021/04/05 11:12:55;;;;;;;18.33;12.97;;;10.70;58.30;;;;;;5046501;28;20219;-90
2021/04/05 11:15:23;;;;;;;20.40;13.43;;;10.70;58.70;;;;;;5042289;28;20337;-89
2021/04/05 11:17:54;;;;;;;19.60;11.63;;;10.80;58.10;;;;;;5046442;28;20236;-90
2021/04/05 11:20:29;;;;;;;27.90;13.93;;;10.70;56.90;;;;;;5046078;28;20177;-90
2021/04/05 11:23:20;;;;;;;24.73;15.07;;;10.60;57.30;;;;;;5045867;28;20839;-89
2021/04/05 11:25:58;;;;;;;19.93;13.03;;;10.50;58.40;;;;;;5034219;28;20255;-89
2021/04/05 11:28:25;;;;;;;19.80;13.57;;;10.40;58.80;;;;;;5051460;28;20208;-89
2021/04/05 11:31:07;;;;;;;24.20;15.77;;;10.30;58.80;;;;;;5047971;28;20540;-89
2021/04/05 11:33:41;;;;;;;27.00;14.63;;;10.40;58.80;;;;;;5047275;28;20161;-89
2021/04/05 11:36:07;;;;;;;35.23;22.03;;;10.30;58.70;;;;;;5045512;28;20217;-89
2021/04/05 11:38:43;;;;;;;23.43;13.63;;;10.30;59.10;;;;;;5030380;28;20199;-89
2021/04/05 11:41:11;;;;;;;19.90;13.23;;;10.30;59.60;;;;;;5047780;28;20165;-89
2021/04/05 11:43:41;;;;;;;22.50;13.50;;;10.50;59.20;;;;;;5047807;28;20656;-89
2021/04/05 11:46:16;;;;;;;19.13;13.07;;;10.40;59.10;;;;;;5030150;28;20200;-89
2021/04/05 11:48:43;;;;;;;17.80;12.63;;;10.50;58.40;;;;;;5040349;28;20176;-89
2021/04/05 11:51:11;;;;;;;18.53;11.63;;;10.40;58.00;;;;;;5027300;28;20189;-89
2021/04/05 11:53:58;;;;;;;20.70;12.47;;;10.40;58.00;;;;;;5045325;28;20188;-89
2021/04/05 11:56:26;;;;;;;22.33;12.80;;;10.40;58.90;;;;;;5041381;28;20213;-89
2021/04/05 11:59:19;;;;;;;19.37;12.10;;;10.50;58.60;;;;;;5026071;28;20190;-89
2021/04/05 12:02:07;;;;;;;15.40;11.33;;;10.40;57.90;;;;;;5029302;28;20178;-89
2021/04/05 12:04:40;;;;;;;20.00;12.07;;;10.40;58.70;;;;;;5026972;28;20205;-89
2021/04/05 12:07:11;;;;;;;39.30;25.37;;;10.40;59.00;;;;;;5026491;28;20197;-88
2021/04/05 12:09:42;;;;;;;16.43;12.63;;;10.50;58.90;;;;;;5026590;28;20193;-89
2021/04/05 12:12:15;;;;;;;16.00;11.17;;;10.40;59.00;;;;;;5024361;28;20158;-89
2021/04/05 12:14:43;;;;;;;15.70;11.17;;;10.40;58.30;;;;;;5025870;28;20190;-89
2021/04/05 12:17:09;;;;;;;15.37;11.57;;;10.40;58.80;;;;;;5026019;28;20296;-89
2021/04/05 12:19:41;;;;;;;15.97;11.10;;;10.40;59.10;;;;;;5031829;28;20169;-90
2021/04/05 12:22:08;;;;;;;17.13;10.90;;;10.50;58.60;;;;;;5027719;28;20187;-89
2021/04/05 12:24:36;;;;;;;14.10;12.07;;;10.40;58.60;;;;;;5046086;28;20223;-89
2021/04/05 12:27:06;;;;;;;17.30;10.30;;;10.40;59.20;;;;;;5045083;28;20177;-90
2021/04/05 12:29:33;;;;;;;19.40;10.53;;;10.30;58.30;;;;;;5045352;28;20169;-89
2021/04/05 12:32:01;;;;;;;13.53;9.23;;;10.30;58.00;;;;;;5044305;28;20266;-90
2021/04/05 12:34:33;;;;;;;16.00;9.97;;;10.30;58.40;;;;;;5043142;28;20215;-89
2021/04/05 12:37:11;;;;;;;13.03;9.37;;;10.30;57.90;;;;;;5043647;28;20200;-90
2021/04/05 12:39:37;;;;;;;13.03;9.70;;;10.20;58.00;;;;;;5042019;28;20247;-89
2021/04/05 12:42:12;;;;;;;12.10;7.80;;;10.20;58.80;;;;;;5029664;28;20196;-90
2021/04/05 12:44:42;;;;;;;14.83;9.20;;;10.20;58.10;;;;;;5038136;28;21609;-91
2021/04/05 12:47:10;;;;;;;11.57;9.37;;;10.10;58.60;;;;;;5044290;28;20165;-90
2021/04/05 12:49:44;;;;;;;12.37;10.00;;;10.10;59.00;;;;;;5042830;28;20231;-91
2021/04/05 12:52:16;;;;;;;15.80;8.60;;;10.10;58.80;;;;;;5031500;28;20660;-90
2021/04/05 12:54:50;;;;;;;13.70;9.30;;;10.10;58.90;;;;;;5041500;28;20208;-88
2021/04/05 12:57:25;;;;;;;11.93;8.90;;;10.00;59.40;;;;;;5038072;28;20231;-90
2021/04/05 12:59:52;;;;;;;12.00;8.63;;;10.00;59.30;;;;;;5045032;28;20184;-89
2021/04/05 13:02:21;;;;;;;17.00;9.23;;;10.00;59.60;;;;;;5042306;28;20185;-91
2021/04/05 13:05:00;;;;;;;15.77;9.70;;;9.90;59.50;;;;;;5038223;28;20561;-91
2021/04/05 13:07:33;;;;;;;17.63;9.30;;;9.90;60.30;;;;;;5033911;28;20640;-91
2021/04/05 13:10:04;;;;;;;17.23;10.53;;;9.90;60.50;;;;;;5038187;28;20189;-91
2021/04/05 13:12:39;;;;;;;17.93;10.93;;;9.90;61.50;;;;;;5037741;28;20208;-91
2021/04/05 13:15:15;;;;;;;13.60;9.60;;;9.90;63.20;;;;;;5043451;28;20219;-91
2021/04/05 13:17:45;;;;;;;14.90;10.67;;;9.80;64.30;;;;;;5035012;28;20216;-91
2021/04/05 13:20:13;;;;;;;14.77;11.30;;;9.80;66.30;;;;;;5031907;28;20185;-91
2021/04/05 13:22:49;;;;;;;15.37;9.70;;;9.70;67.20;;;;;;5034397;28;20237;-91
2021/04/05 13:25:24;;;;;;;19.30;12.53;;;9.70;69.30;;;;;;5031702;28;20239;-91
2021/04/05 13:27:51;;;;;;;13.00;9.53;;;9.60;68.60;;;;;;5044508;28;20184;-91